Time;durP1;ratioP1;P1;durP2;ratioP2;P2;SDS_P1;SDS_P2;PMS_P1;PMS_P2;Temp;Humidity;BMP_temperature;BMP_pressure;BME280_temperature;BME280_humidity;BME280_pressure;Samples;Min_cycle;Max_cycle;Signal;HPM_P1;HPM_P2
2020/12/02 00:00:15;;;;;;;41.67;20.05;;;3.00;99.90;;;;;;6080758;23;20206;-79
2020/12/02 00:02:49;;;;;;;37.00;20.38;;;2.90;99.90;;;;;;6083669;23;20262;-77
2020/12/02 00:05:16;;;;;;;42.53;21.02;;;3.00;99.90;;;;;;6083687;23;20170;-79
2020/12/02 00:07:44;;;;;;;45.25;21.10;;;3.00;99.90;;;;;;6075355;23;20186;-78
2020/12/02 00:10:10;;;;;;;40.15;20.63;;;3.00;99.90;;;;;;6069570;23;20258;-79
2020/12/02 00:12:37;;;;;;;39.05;19.52;;;3.00;99.90;;;;;;6065991;23;20261;-79
2020/12/02 01:05:32;;;;;;;29.52;16.42;;;2.60;99.90;;;;;;6219998;23;20710;-79
2020/12/02 01:08:17;;;;;;;28.20;16.23;;;2.60;99.90;;;;;;6232877;23;20190;-79
2020/12/02 01:10:44;;;;;;;27.77;17.13;;;2.60;99.90;;;;;;6233178;23;20203;-78
2020/12/02 01:13:11;;;;;;;27.52;15.63;;;2.60;99.90;;;;;;6234416;23;20175;-79
2020/12/02 01:15:38;;;;;;;31.92;15.98;;;2.60;99.90;;;;;;6233560;23;20205;-78
2020/12/02 01:18:13;;;;;;;27.38;15.10;;;2.60;99.90;;;;;;6227586;23;20217;-79
2020/12/02 01:20:40;;;;;;;29.48;15.18;;;2.60;99.90;;;;;;6218185;23;20199;-79
2020/12/02 01:23:11;;;;;;;29.80;15.75;;;2.60;99.90;;;;;;6217333;23;20182;-78
2020/12/02 01:25:38;;;;;;;26.90;15.52;;;2.70;99.90;;;;;;6218109;23;20158;-78
2020/12/02 01:28:07;;;;;;;23.40;15.48;;;2.70;99.90;;;;;;6217293;23;20182;-79
2020/12/02 01:30:36;;;;;;;30.83;16.60;;;2.60;99.90;;;;;;6217625;23;20202;-78
2020/12/02 01:33:03;;;;;;;31.23;16.70;;;2.60;99.90;;;;;;6217757;23;20205;-78
2020/12/02 01:35:32;;;;;;;28.85;17.00;;;2.60;99.90;;;;;;6221383;23;20190;-78
2020/12/02 01:38:02;;;;;;;35.00;16.55;;;2.60;99.90;;;;;;6219722;23;20528;-77
2020/12/02 01:40:31;;;;;;;32.85;16.00;;;2.50;99.90;;;;;;6217524;23;20195;-78
2020/12/02 01:43:01;;;;;;;36.33;18.02;;;2.50;99.90;;;;;;6216623;23;20587;-78
2020/12/02 01:45:32;;;;;;;40.70;17.55;;;2.50;99.90;;;;;;6217195;23;20201;-78
2020/12/02 01:48:23;;;;;;;33.97;17.27;;;2.50;99.90;;;;;;6216706;23;20159;-77
2020/12/02 01:50:54;;;;;;;35.33;17.35;;;2.50;99.90;;;;;;6216947;23;20229;-78
2020/12/02 01:53:30;;;;;;;40.10;17.88;;;2.50;99.90;;;;;;6216957;23;20159;-77
2020/12/02 01:55:59;;;;;;;39.60;17.30;;;2.50;99.90;;;;;;6215448;23;20236;-78
2020/12/02 01:58:34;;;;;;;40.88;15.18;;;2.60;99.90;;;;;;6216723;23;20210;-78
2020/12/02 02:01:06;;;;;;;34.58;17.40;;;2.50;99.90;;;;;;6216343;23;20212;-78
2020/12/02 02:03:37;;;;;;;36.20;15.63;;;2.50;99.90;;;;;;6216738;23;20213;-78
2020/12/02 02:06:09;;;;;;;39.28;17.02;;;2.50;99.90;;;;;;6216601;23;20194;-79
2020/12/02 02:08:39;;;;;;;39.35;16.02;;;2.50;99.90;;;;;;6217784;23;20191;-78
2020/12/02 02:11:07;;;;;;;41.75;17.73;;;2.60;99.90;;;;;;6217478;23;20664;-78
2020/12/02 02:14:05;;;;;;;36.78;17.40;;;2.60;99.90;;;;;;6218715;23;20210;-78
2020/12/02 02:16:38;;;;;;;36.67;17.00;;;2.50;99.90;;;;;;6193361;23;20241;-78
2020/12/02 02:19:05;;;;;;;38.45;17.10;;;2.50;99.90;;;;;;6217288;23;20194;-77
2020/12/02 02:21:33;;;;;;;36.15;16.92;;;2.50;99.90;;;;;;6225796;23;20178;-78
2020/12/02 02:24:01;;;;;;;36.67;17.45;;;2.50;99.90;;;;;;6232814;23;20187;-78
2020/12/02 02:26:34;;;;;;;37.35;17.50;;;2.50;99.90;;;;;;6232497;23;20205;-78
2020/12/02 02:29:07;;;;;;;35.15;17.48;;;2.50;99.90;;;;;;6235587;23;20189;-78
2020/12/02 02:31:39;;;;;;;31.02;15.82;;;2.50;99.90;;;;;;6238587;23;20151;-78
2020/12/02 02:34:08;;;;;;;30.40;16.52;;;2.60;99.90;;;;;;6238742;22;20174;-78
2020/12/02 02:36:34;;;;;;;37.53;16.52;;;2.50;99.90;;;;;;6235629;23;20229;-78
2020/12/02 02:39:01;;;;;;;33.97;17.52;;;2.40;99.90;;;;;;6236928;23;20170;-78
2020/12/02 02:41:29;;;;;;;31.63;17.50;;;2.50;99.90;;;;;;6220026;23;20656;-78
2020/12/02 02:43:57;;;;;;;34.40;17.52;;;2.40;99.90;;;;;;6217523;23;20202;-78
2020/12/02 02:46:23;;;;;;;34.28;17.55;;;2.50;99.90;;;;;;6216608;23;20496;-78
2020/12/02 02:48:50;;;;;;;32.00;15.68;;;2.40;99.90;;;;;;6217369;23;20261;-79
2020/12/02 02:51:16;;;;;;;30.63;17.83;;;2.40;99.90;;;;;;6216498;23;20591;-78
2020/12/02 02:53:43;;;;;;;35.13;18.88;;;2.50;99.90;;;;;;6216334;23;20249;-79
2020/12/02 02:56:12;;;;;;;33.55;19.13;;;2.40;99.90;;;;;;6216276;23;20195;-78
2020/12/02 02:58:40;;;;;;;37.15;19.45;;;2.40;99.90;;;;;;6222406;23;20652;-77
2020/12/02 03:01:08;;;;;;;35.78;19.63;;;2.40;99.90;;;;;;6219583;23;20238;-77
2020/12/02 03:03:35;;;;;;;40.03;17.40;;;2.50;99.90;;;;;;6232433;23;20179;-79
2020/12/02 03:06:03;;;;;;;37.80;19.60;;;2.50;99.90;;;;;;6237118;23;20524;-79
2020/12/02 03:08:30;;;;;;;35.78;18.88;;;2.50;99.90;;;;;;6228478;23;20179;-78
2020/12/02 03:10:58;;;;;;;41.95;19.27;;;2.50;99.90;;;;;;6224925;23;20210;-78
2020/12/02 03:13:35;;;;;;;29.88;16.90;;;2.40;99.90;;;;;;6223712;23;20179;-78
2020/12/02 03:16:07;;;;;;;33.03;17.50;;;2.50;99.90;;;;;;6218336;23;20262;-79
2020/12/02 03:18:33;;;;;;;31.83;16.10;;;2.50;99.90;;;;;;6217898;23;20238;-79
2020/12/02 03:21:07;;;;;;;36.03;18.42;;;2.50;99.90;;;;;;6219953;23;20254;-78
2020/12/02 03:23:34;;;;;;;34.92;17.65;;;2.50;99.90;;;;;;6220530;23;20568;-78
2020/12/02 03:26:01;;;;;;;38.13;17.83;;;2.50;99.90;;;;;;6191450;23;20191;-78
2020/12/02 03:28:28;;;;;;;36.97;20.13;;;2.50;99.90;;;;;;6197597;23;20183;-78
2020/12/02 03:30:58;;;;;;;40.35;19.27;;;2.50;99.90;;;;;;6193472;23;20265;-79
2020/12/02 03:33:25;;;;;;;31.00;16.90;;;2.50;99.90;;;;;;6194552;23;20191;-77
2020/12/02 03:35:52;;;;;;;35.30;19.60;;;2.50;99.90;;;;;;6192684;23;20230;-78
2020/12/02 03:38:19;;;;;;;31.52;17.15;;;2.50;99.90;;;;;;6189403;23;20183;-78
2020/12/02 03:40:45;;;;;;;41.33;19.63;;;2.50;99.90;;;;;;6195574;23;20210;-78
2020/12/02 03:43:12;;;;;;;32.92;17.58;;;2.40;99.90;;;;;;6201235;23;20179;-78
2020/12/02 03:45:42;;;;;;;36.97;17.73;;;2.50;99.90;;;;;;6202621;23;20179;-78
2020/12/02 03:48:09;;;;;;;37.70;18.52;;;2.40;99.90;;;;;;6201051;23;20160;-79
2020/12/02 03:50:37;;;;;;;35.30;17.70;;;2.40;99.90;;;;;;6196618;23;20213;-79
2020/12/02 03:53:04;;;;;;;42.10;18.90;;;2.50;99.90;;;;;;6193970;23;20676;-78
2020/12/02 03:55:30;;;;;;;35.10;18.58;;;2.50;99.90;;;;;;6195803;23;20206;-78
2020/12/02 03:57:56;;;;;;;32.80;16.58;;;2.50;99.90;;;;;;6199707;23;20179;-77
2020/12/02 04:00:23;;;;;;;36.33;16.65;;;2.50;99.90;;;;;;6199905;23;20209;-78
2020/12/02 04:02:49;;;;;;;35.70;18.25;;;2.40;99.80;;;;;;6200616;23;20194;-78
2020/12/02 04:05:16;;;;;;;36.50;17.50;;;2.50;99.70;;;;;;6200845;23;20180;-77
2020/12/02 04:07:43;;;;;;;38.35;18.73;;;2.50;99.60;;;;;;6202788;23;20190;-78
2020/12/02 04:10:10;;;;;;;38.90;20.00;;;2.50;99.40;;;;;;6202012;23;20257;-77
2020/12/02 04:12:37;;;;;;;38.65;18.13;;;2.60;99.40;;;;;;6201250;23;20183;-77
2020/12/02 04:15:04;;;;;;;33.65;17.63;;;2.50;99.40;;;;;;6197977;23;20199;-78
2020/12/02 04:17:30;;;;;;;37.00;18.10;;;2.50;99.40;;;;;;6196966;23;20183;-78
2020/12/02 04:19:57;;;;;;;30.52;17.17;;;2.40;99.30;;;;;;6189583;23;20207;-78
2020/12/02 04:22:23;;;;;;;35.55;17.90;;;2.50;99.40;;;;;;6191949;23;20645;-77
2020/12/02 04:24:51;;;;;;;33.22;18.50;;;2.50;99.20;;;;;;6200378;23;20191;-79
2020/12/02 04:27:18;;;;;;;29.60;16.92;;;2.50;99.10;;;;;;6189903;23;20194;-78
2020/12/02 04:29:45;;;;;;;37.03;18.20;;;2.50;98.90;;;;;;6188098;23;20253;-79
2020/12/02 04:32:12;;;;;;;37.25;18.60;;;2.50;98.90;;;;;;6188389;23;20205;-78
2020/12/02 04:34:38;;;;;;;38.88;19.10;;;2.50;98.70;;;;;;6187532;23;20199;-79
2020/12/02 04:37:04;;;;;;;39.05;19.83;;;2.40;99.00;;;;;;6187595;23;20199;-78
2020/12/02 04:39:34;;;;;;;45.47;19.23;;;2.40;98.90;;;;;;6186898;23;20577;-78
2020/12/02 04:42:01;;;;;;;38.55;19.88;;;2.40;98.80;;;;;;6187874;23;20697;-78
2020/12/02 04:44:28;;;;;;;40.70;18.60;;;2.40;99.10;;;;;;6189358;23;20218;-78
2020/12/02 04:46:56;;;;;;;36.92;18.30;;;2.40;98.70;;;;;;6188152;23;20546;-78
2020/12/02 04:49:26;;;;;;;39.70;19.48;;;2.40;98.60;;;;;;6188167;23;20214;-78
2020/12/02 04:51:57;;;;;;;37.75;19.95;;;2.40;98.70;;;;;;6191260;23;20168;-79
2020/12/02 04:54:28;;;;;;;39.90;19.35;;;2.40;98.80;;;;;;6189670;23;20214;-80
2020/12/02 04:56:54;;;;;;;35.80;19.52;;;2.40;98.80;;;;;;6189044;23;20187;-78
2020/12/02 04:59:34;;;;;;;44.13;19.92;;;2.40;98.90;;;;;;6196176;23;20210;-79
2020/12/02 05:02:00;;;;;;;39.60;20.13;;;2.40;98.90;;;;;;6203944;23;20202;-78
2020/12/02 05:04:29;;;;;;;38.72;17.77;;;2.40;98.90;;;;;;6205414;23;20176;-79
2020/12/02 05:07:14;;;;;;;43.92;19.13;;;2.50;98.90;;;;;;6201253;23;20183;-78
2020/12/02 05:09:59;;;;;;;41.40;17.10;;;2.50;98.90;;;;;;6200529;23;20261;-78
2020/12/02 05:12:28;;;;;;;38.60;19.45;;;2.40;98.80;;;;;;6195465;23;20183;-77
2020/12/02 05:15:09;;;;;;;37.03;17.23;;;2.40;98.90;;;;;;6197498;23;20175;-78
2020/12/02 05:17:36;;;;;;;39.00;18.95;;;2.40;99.30;;;;;;6201425;23;20172;-78
2020/12/02 05:20:09;;;;;;;35.80;18.25;;;2.40;99.30;;;;;;6206579;23;20206;-79
2020/12/02 05:22:38;;;;;;;39.50;19.25;;;2.40;99.30;;;;;;6204260;23;20174;-78
2020/12/02 05:25:08;;;;;;;39.30;20.88;;;2.40;99.00;;;;;;6202243;23;20183;-76
2020/12/02 05:27:36;;;;;;;39.42;20.10;;;2.50;99.40;;;;;;6200367;23;20511;-79
2020/12/02 05:30:20;;;;;;;35.17;19.45;;;2.50;99.20;;;;;;6197908;23;20226;-78
2020/12/02 05:33:04;;;;;;;39.45;19.42;;;2.50;99.10;;;;;;6191387;23;20645;-78
2020/12/02 05:35:32;;;;;;;35.28;18.10;;;2.40;99.00;;;;;;6201369;23;20184;-77
2020/12/02 05:38:02;;;;;;;34.92;18.00;;;2.40;99.00;;;;;;6200345;23;20194;-77
2020/12/02 05:40:30;;;;;;;42.40;19.15;;;2.40;99.00;;;;;;6201249;23;20277;-77
2020/12/02 05:43:01;;;;;;;43.85;20.75;;;2.30;98.80;;;;;;6197347;23;20517;-78
2020/12/02 05:45:35;;;;;;;32.83;19.20;;;2.40;99.00;;;;;;6186958;23;20195;-78
2020/12/02 05:48:02;;;;;;;40.25;19.83;;;2.40;99.00;;;;;;6186435;23;20178;-78
2020/12/02 05:50:28;;;;;;;39.63;18.45;;;2.40;98.90;;;;;;6186483;23;20199;-79
2020/12/02 05:53:03;;;;;;;38.17;18.83;;;2.50;99.10;;;;;;6187376;23;20496;-79
2020/12/02 05:55:32;;;;;;;36.47;19.23;;;2.50;98.60;;;;;;6186669;23;20221;-79
2020/12/02 05:58:04;;;;;;;37.85;18.65;;;2.50;98.50;;;;;;6186140;23;20179;-78
2020/12/02 06:00:33;;;;;;;36.00;18.27;;;2.40;97.80;;;;;;6182267;23;20210;-76
2020/12/02 06:03:00;;;;;;;39.25;19.55;;;2.50;97.80;;;;;;6185331;23;20271;-75
2020/12/02 06:05:28;;;;;;;35.67;17.73;;;2.50;97.60;;;;;;6185323;23;20218;-76
2020/12/02 06:07:58;;;;;;;37.38;20.10;;;2.50;97.30;;;;;;6184409;23;20222;-76
2020/12/02 06:10:32;;;;;;;34.90;18.40;;;2.50;97.30;;;;;;6185273;23;20537;-76
2020/12/02 06:12:58;;;;;;;35.28;17.88;;;2.50;96.80;;;;;;6184848;23;20164;-76
2020/12/02 06:15:26;;;;;;;41.42;19.27;;;2.50;96.90;;;;;;6184849;23;20282;-76
2020/12/02 06:18:14;;;;;;;33.58;18.75;;;2.50;96.80;;;;;;6184382;23;20262;-76
2020/12/02 06:20:45;;;;;;;35.17;19.02;;;2.50;96.40;;;;;;6186219;23;20677;-76
2020/12/02 06:23:11;;;;;;;38.92;18.88;;;2.40;95.90;;;;;;6186916;23;20203;-76
2020/12/02 06:25:56;;;;;;;37.40;19.92;;;2.40;95.90;;;;;;6185296;23;20186;-75
2020/12/02 06:28:47;;;;;;;36.80;18.02;;;2.40;95.80;;;;;;6185205;23;20168;-77
2020/12/02 06:31:22;;;;;;;33.78;18.75;;;2.40;95.20;;;;;;6185841;23;20735;-76
2020/12/02 06:33:50;;;;;;;32.58;18.98;;;2.40;94.90;;;;;;6191332;23;20194;-76
2020/12/02 06:36:21;;;;;;;33.78;16.92;;;2.40;95.00;;;;;;6188962;23;20223;-75
2020/12/02 06:38:49;;;;;;;33.83;17.38;;;2.40;94.70;;;;;;6188587;23;20179;-76
2020/12/02 06:41:35;;;;;;;33.08;17.02;;;2.50;94.80;;;;;;6186167;23;20278;-77
2020/12/02 06:44:30;;;;;;;36.10;17.55;;;2.40;94.20;;;;;;6188776;23;20171;-76
2020/12/02 06:47:12;;;;;;;33.58;18.58;;;2.40;93.70;;;;;;6195832;23;20183;-77
2020/12/02 06:49:40;;;;;;;31.80;16.65;;;2.40;93.60;;;;;;6189753;23;20239;-76
2020/12/02 06:52:10;;;;;;;31.85;15.98;;;2.40;93.40;;;;;;6186683;23;20258;-77
2020/12/02 06:54:38;;;;;;;30.85;17.60;;;2.40;93.60;;;;;;6184865;23;20242;-77
2020/12/02 06:57:21;;;;;;;36.50;17.70;;;2.40;93.80;;;;;;6192342;23;20210;-76
2020/12/02 06:59:54;;;;;;;30.65;16.20;;;2.40;93.30;;;;;;6184516;23;20203;-76
2020/12/02 07:02:40;;;;;;;26.05;15.88;;;2.40;93.20;;;;;;6184932;23;20179;-76
2020/12/02 07:05:21;;;;;;;29.42;16.23;;;2.40;92.40;;;;;;6201707;23;20636;-76
2020/12/02 07:08:01;;;;;;;27.38;15.32;;;2.40;92.40;;;;;;6209242;23;20151;-76
2020/12/02 07:10:27;;;;;;;29.95;16.65;;;2.40;92.40;;;;;;6209373;23;20199;-76
2020/12/02 07:12:54;;;;;;;31.88;18.17;;;2.40;92.40;;;;;;6208693;23;20184;-76
2020/12/02 07:15:23;;;;;;;34.67;16.65;;;2.40;92.40;;;;;;6208209;23;20190;-76
2020/12/02 07:17:50;;;;;;;30.13;16.23;;;2.40;92.40;;;;;;6198581;23;20328;-77
2020/12/02 07:20:18;;;;;;;27.30;15.82;;;2.40;92.40;;;;;;6200378;23;20203;-77
2020/12/02 07:22:51;;;;;;;32.17;16.83;;;2.40;91.70;;;;;;6196957;23;20184;-77
2020/12/02 07:25:17;;;;;;;32.83;17.20;;;2.50;92.40;;;;;;6195149;23;20167;-77
2020/12/02 07:27:46;;;;;;;27.85;15.32;;;2.50;92.30;;;;;;6194402;23;20183;-77
2020/12/02 07:30:31;;;;;;;32.83;16.92;;;2.50;92.40;;;;;;6193704;23;20211;-77
2020/12/02 07:33:11;;;;;;;32.03;18.10;;;2.50;91.90;;;;;;6193383;23;20171;-76
2020/12/02 07:35:38;;;;;;;29.13;14.95;;;2.50;91.70;;;;;;6185439;23;20259;-76
2020/12/02 07:38:09;;;;;;;32.83;17.55;;;2.50;91.90;;;;;;6185705;23;20218;-76
2020/12/02 07:40:38;;;;;;;27.45;16.63;;;2.50;90.90;;;;;;6184930;23;20210;-77
2020/12/02 07:43:07;;;;;;;32.13;15.35;;;2.50;91.20;;;;;;6189388;23;20189;-76
2020/12/02 07:45:35;;;;;;;31.27;16.65;;;2.50;91.50;;;;;;6189031;23;20183;-77
2020/12/02 07:48:05;;;;;;;32.78;16.50;;;2.50;91.40;;;;;;6185575;23;20707;-77
2020/12/02 07:50:35;;;;;;;32.22;16.90;;;2.50;90.70;;;;;;6187646;23;20511;-77
2020/12/02 07:53:13;;;;;;;32.25;16.85;;;2.50;90.70;;;;;;6184489;23;20262;-77
2020/12/02 07:55:43;;;;;;;30.40;16.33;;;2.50;91.10;;;;;;6183899;23;20218;-76
2020/12/02 07:58:14;;;;;;;28.95;15.48;;;2.50;91.20;;;;;;6184080;23;20167;-77
2020/12/02 08:00:43;;;;;;;33.97;16.92;;;2.50;90.90;;;;;;6184578;23;20755;-76
2020/12/02 08:03:33;;;;;;;30.27;17.05;;;2.60;90.70;;;;;;6184843;23;20193;-76
2020/12/02 08:06:20;;;;;;;29.27;16.23;;;2.50;89.70;;;;;;6183538;23;20167;-76
2020/12/02 08:08:46;;;;;;;27.83;15.13;;;2.50;89.20;;;;;;6188462;23;20176;-78
2020/12/02 08:11:16;;;;;;;30.48;16.13;;;2.50;88.30;;;;;;6196243;23;20214;-74
2020/12/02 08:13:53;;;;;;;30.33;17.17;;;2.50;87.60;;;;;;6200808;23;20246;-76
2020/12/02 08:16:25;;;;;;;25.85;15.95;;;2.50;87.50;;;;;;6207513;23;20179;-75
2020/12/02 08:18:54;;;;;;;30.55;15.45;;;2.50;87.50;;;;;;6208915;23;20230;-76
2020/12/02 08:21:24;;;;;;;33.25;16.65;;;2.50;87.50;;;;;;6209102;23;20199;-75
2020/12/02 08:24:04;;;;;;;30.73;15.93;;;2.50;87.50;;;;;;6204280;23;20179;-78
2020/12/02 08:26:32;;;;;;;28.30;16.10;;;2.60;87.60;;;;;;6188151;23;20191;-76
2020/12/02 08:29:05;;;;;;;34.38;17.85;;;2.50;87.10;;;;;;6185230;23;20701;-77
2020/12/02 08:31:32;;;;;;;24.55;14.77;;;2.50;86.80;;;;;;6187855;23;20218;-77
2020/12/02 08:34:14;;;;;;;32.08;17.35;;;2.50;86.60;;;;;;6186141;23;20221;-78
2020/12/02 08:36:44;;;;;;;28.58;14.82;;;2.60;87.60;;;;;;6184553;23;20231;-77
2020/12/02 08:39:11;;;;;;;33.17;17.50;;;2.60;86.30;;;;;;6185896;23;20581;-77
2020/12/02 08:41:45;;;;;;;26.70;14.68;;;2.60;85.90;;;;;;6185687;23;20203;-77
2020/12/02 08:44:14;;;;;;;26.08;14.40;;;2.50;85.90;;;;;;6184988;23;20177;-77
2020/12/02 08:46:51;;;;;;;27.83;15.27;;;2.50;86.20;;;;;;6185702;23;20175;-77
2020/12/02 08:49:19;;;;;;;29.00;16.60;;;2.60;86.90;;;;;;6186017;23;20195;-76
2020/12/02 08:51:46;;;;;;;27.40;15.65;;;2.60;86.90;;;;;;6185671;23;20199;-76
2020/12/02 08:54:15;;;;;;;29.23;18.02;;;2.60;86.80;;;;;;6185401;23;20218;-76
2020/12/02 08:56:43;;;;;;;30.73;17.25;;;2.60;86.20;;;;;;6185078;23;20199;-77
2020/12/02 08:59:11;;;;;;;29.25;15.48;;;2.60;86.30;;;;;;6187342;23;20609;-77
2020/12/02 09:01:38;;;;;;;26.95;15.43;;;2.60;86.60;;;;;;6186751;23;20239;-77
2020/12/02 09:04:04;;;;;;;28.50;16.30;;;2.60;86.00;;;;;;6188923;23;20225;-76
2020/12/02 09:06:31;;;;;;;26.85;15.55;;;2.70;86.40;;;;;;6187321;23;20183;-77
2020/12/02 09:08:57;;;;;;;30.52;16.95;;;2.70;85.60;;;;;;6186353;23;20258;-76
2020/12/02 09:11:26;;;;;;;27.13;15.60;;;2.70;85.30;;;;;;6187209;23;20615;-75
2020/12/02 09:13:54;;;;;;;29.33;16.80;;;2.70;83.60;;;;;;6186868;23;20223;-76
2020/12/02 09:16:23;;;;;;;29.05;16.80;;;2.70;84.80;;;;;;6195595;23;20237;-74
2020/12/02 09:18:49;;;;;;;27.90;15.35;;;2.60;84.70;;;;;;6209274;23;20183;-76
2020/12/02 09:21:16;;;;;;;29.27;15.52;;;2.70;85.10;;;;;;6208967;23;20198;-77
2020/12/02 09:23:42;;;;;;;29.67;15.77;;;2.80;85.50;;;;;;6199921;23;20198;-78
2020/12/02 09:26:09;;;;;;;30.85;15.43;;;3.00;85.20;;;;;;6192336;23;20186;-77
2020/12/02 09:28:35;;;;;;;28.52;16.20;;;2.90;83.60;;;;;;6190361;23;20183;-78
2020/12/02 09:31:02;;;;;;;30.25;16.35;;;3.00;83.90;;;;;;6189224;23;20203;-77
2020/12/02 09:33:29;;;;;;;25.13;13.98;;;3.10;82.60;;;;;;6189326;23;20610;-76
2020/12/02 09:35:55;;;;;;;38.72;16.42;;;3.00;82.80;;;;;;6186536;23;20217;-77
2020/12/02 09:38:22;;;;;;;31.05;16.33;;;2.90;81.00;;;;;;6187564;23;20266;-77
2020/12/02 09:40:50;;;;;;;32.10;15.98;;;2.90;83.10;;;;;;6189720;23;20207;-76
2020/12/02 09:43:38;;;;;;;33.65;17.23;;;3.00;83.40;;;;;;6191565;23;20266;-78
2020/12/02 09:46:12;;;;;;;27.10;14.98;;;2.90;82.40;;;;;;6188801;23;20166;-77
2020/12/02 09:48:39;;;;;;;28.95;15.90;;;2.90;83.80;;;;;;6188634;23;20226;-78
2020/12/02 09:51:17;;;;;;;29.20;15.45;;;2.80;83.10;;;;;;6186133;23;20275;-77
2020/12/02 09:53:44;;;;;;;26.83;14.65;;;3.00;83.00;;;;;;6185300;23;20290;-77
2020/12/02 09:56:11;;;;;;;26.77;14.55;;;3.10;82.70;;;;;;6185432;23;20285;-78
2020/12/02 09:58:39;;;;;;;30.02;15.95;;;3.10;81.90;;;;;;6185533;23;20190;-77
2020/12/02 10:01:13;;;;;;;27.50;16.42;;;3.10;82.40;;;;;;6187637;23;20213;-77
2020/12/02 10:04:05;;;;;;;28.42;15.75;;;3.00;80.60;;;;;;6188181;23;20170;-76
2020/12/02 10:06:51;;;;;;;28.58;15.95;;;3.00;80.60;;;;;;6188818;23;20620;-77
2020/12/02 10:09:56;;;;;;;24.33;14.93;;;3.00;81.90;;;;;;6191713;23;20190;-77
2020/12/02 10:12:40;;;;;;;31.13;16.95;;;3.10;81.60;;;;;;6186785;23;20581;-77
2020/12/02 10:15:22;;;;;;;33.33;18.13;;;2.90;82.30;;;;;;6186762;23;20173;-77
2020/12/02 10:18:19;;;;;;;32.08;17.48;;;3.00;81.50;;;;;;6185641;23;20324;-79
2020/12/02 10:20:48;;;;;;;32.47;16.13;;;3.00;81.10;;;;;;6158407;23;20206;-77
2020/12/02 10:23:31;;;;;;;28.60;16.23;;;3.00;82.30;;;;;;6186746;23;20216;-77
2020/12/02 10:26:37;;;;;;;25.88;14.60;;;3.10;81.70;;;;;;6186439;23;20159;-78
2020/12/02 10:29:11;;;;;;;25.75;14.90;;;3.10;81.10;;;;;;6190512;23;20171;-79
2020/12/02 10:31:49;;;;;;;30.20;15.35;;;3.10;82.00;;;;;;6185819;23;20209;-78
2020/12/02 10:34:19;;;;;;;28.02;16.00;;;3.10;82.30;;;;;;6186213;23;20166;-76
2020/12/02 10:36:49;;;;;;;28.95;14.35;;;3.20;81.20;;;;;;6188838;23;20665;-78
2020/12/02 10:39:20;;;;;;;33.10;18.92;;;3.20;80.30;;;;;;6187863;23;20170;-78
2020/12/02 10:42:01;;;;;;;24.20;15.25;;;3.20;79.90;;;;;;6189851;23;20204;-77
2020/12/02 10:45:08;;;;;;;29.15;15.50;;;3.20;79.90;;;;;;6188986;23;20243;-78
2020/12/02 10:48:06;;;;;;;29.00;16.25;;;3.10;80.50;;;;;;6138682;23;20225;-78
2020/12/02 10:50:36;;;;;;;33.35;16.35;;;3.20;79.90;;;;;;6186818;23;20287;-77
2020/12/02 10:53:06;;;;;;;31.90;16.10;;;3.30;80.00;;;;;;6189268;23;20257;-78
2020/12/02 10:55:34;;;;;;;29.00;15.20;;;3.30;79.30;;;;;;6187382;23;20209;-77
2020/12/02 10:58:03;;;;;;;31.27;16.80;;;3.40;78.90;;;;;;6185361;23;20190;-78
2020/12/02 11:00:32;;;;;;;29.33;16.10;;;3.50;78.00;;;;;;6186640;23;20207;-76
2020/12/02 11:03:16;;;;;;;25.50;15.57;;;3.40;77.70;;;;;;6186540;23;20498;-78
2020/12/02 11:05:49;;;;;;;30.42;16.33;;;3.50;77.20;;;;;;6189800;23;20190;-77
2020/12/02 11:08:26;;;;;;;29.40;16.38;;;3.50;75.30;;;;;;6187370;23;20610;-76
2020/12/02 11:11:06;;;;;;;27.00;15.45;;;3.20;76.30;;;;;;6186864;23;20230;-77
2020/12/02 11:13:43;;;;;;;28.27;15.00;;;3.30;78.50;;;;;;6188618;23;20171;-78
2020/12/02 11:16:14;;;;;;;27.13;15.15;;;3.40;77.40;;;;;;6186091;23;20670;-77
2020/12/02 11:19:15;;;;;;;30.35;15.80;;;3.30;76.60;;;;;;6188040;23;20183;-78
2020/12/02 11:21:50;;;;;;;25.73;15.45;;;3.20;77.50;;;;;;6188413;23;20231;-77
2020/12/02 11:24:55;;;;;;;26.98;15.50;;;3.20;77.50;;;;;;6187610;23;20218;-77
2020/12/02 11:27:22;;;;;;;29.90;16.15;;;3.30;77.50;;;;;;6157780;23;20203;-78
2020/12/02 11:29:50;;;;;;;23.85;15.25;;;3.20;76.50;;;;;;6190056;23;20239;-77
2020/12/02 11:32:54;;;;;;;25.70;15.25;;;3.20;78.10;;;;;;6190336;23;20657;-77
2020/12/02 11:35:38;;;;;;;26.48;15.48;;;3.20;77.70;;;;;;6192359;23;20187;-77
2020/12/02 11:38:13;;;;;;;28.15;14.35;;;3.20;77.40;;;;;;6188947;23;20186;-77
2020/12/02 11:40:46;;;;;;;27.48;16.23;;;3.20;77.90;;;;;;6192816;23;20249;-77
2020/12/02 11:43:23;;;;;;;26.73;15.20;;;3.20;78.30;;;;;;6193160;23;20171;-77
2020/12/02 11:45:51;;;;;;;31.30;16.02;;;3.30;78.70;;;;;;6196932;23;20174;-76
2020/12/02 11:48:24;;;;;;;26.83;15.23;;;3.50;77.90;;;;;;6195640;23;20183;-77
2020/12/02 11:51:02;;;;;;;30.25;16.30;;;3.40;78.10;;;;;;6189153;23;20590;-76
2020/12/02 11:53:49;;;;;;;26.33;14.95;;;3.50;77.00;;;;;;6201183;23;20172;-76
2020/12/02 11:56:20;;;;;;;24.70;15.05;;;3.60;76.50;;;;;;6200721;23;20534;-77
2020/12/02 11:58:54;;;;;;;24.20;14.25;;;3.50;75.80;;;;;;6202813;23;20198;-77
2020/12/02 12:01:30;;;;;;;29.83;15.52;;;3.40;75.90;;;;;;6200469;23;20217;-77
2020/12/02 12:04:05;;;;;;;29.85;15.00;;;3.60;76.40;;;;;;6197436;23;20191;-78
2020/12/02 12:06:32;;;;;;;34.15;16.05;;;3.50;75.20;;;;;;6199441;23;20160;-79
2020/12/02 12:09:13;;;;;;;25.80;14.60;;;3.50;74.90;;;;;;6208425;23;20179;-79
2020/12/02 12:11:40;;;;;;;31.30;16.65;;;3.50;74.50;;;;;;6208377;23;20705;-78
2020/12/02 12:14:16;;;;;;;30.27;15.77;;;3.40;75.70;;;;;;6208901;23;20171;-78
2020/12/02 12:16:56;;;;;;;28.45;15.20;;;3.40;75.90;;;;;;6206843;23;20209;-79
2020/12/02 12:19:32;;;;;;;29.33;15.23;;;3.40;75.00;;;;;;6206998;23;20203;-79
2020/12/02 12:22:13;;;;;;;27.40;14.65;;;3.40;75.00;;;;;;6195913;23;20636;-78
2020/12/02 12:24:44;;;;;;;29.75;15.70;;;3.40;74.30;;;;;;6192106;23;20211;-76
2020/12/02 12:27:13;;;;;;;26.83;15.48;;;3.40;74.00;;;;;;6203572;23;20175;-79
2020/12/02 12:29:39;;;;;;;26.42;14.30;;;3.40;74.40;;;;;;6208060;23;20172;-79
2020/12/02 12:32:13;;;;;;;26.83;13.55;;;3.40;73.40;;;;;;6209550;23;20167;-77
2020/12/02 12:34:45;;;;;;;26.20;14.25;;;3.30;74.00;;;;;;6210491;23;20224;-78
2020/12/02 12:37:20;;;;;;;25.67;14.20;;;3.30;74.90;;;;;;6209763;23;20188;-79
2020/12/02 12:39:51;;;;;;;30.73;16.48;;;3.50;75.30;;;;;;6200396;23;20167;-78
2020/12/02 12:42:21;;;;;;;28.33;14.57;;;3.50;74.10;;;;;;6203361;23;20175;-79
2020/12/02 12:44:48;;;;;;;27.50;14.70;;;3.50;73.10;;;;;;6201203;23;20239;-78
2020/12/02 12:47:22;;;;;;;31.92;15.35;;;3.60;73.50;;;;;;6188605;23;20179;-78
2020/12/02 12:49:49;;;;;;;29.58;14.80;;;3.50;73.90;;;;;;6189144;23;20282;-78
2020/12/02 12:52:17;;;;;;;29.23;16.73;;;3.50;73.60;;;;;;6188990;23;20712;-76
2020/12/02 12:54:45;;;;;;;26.60;14.70;;;3.50;73.40;;;;;;6192905;23;20259;-77
2020/12/02 12:57:15;;;;;;;23.48;14.38;;;3.50;73.90;;;;;;6193751;23;20205;-76
2020/12/02 12:59:41;;;;;;;26.05;14.02;;;3.60;71.80;;;;;;6189813;23;20183;-78
2020/12/02 13:02:17;;;;;;;23.90;12.40;;;3.50;72.20;;;;;;6190922;23;20164;-78
2020/12/02 13:04:43;;;;;;;31.95;14.07;;;3.60;71.80;;;;;;6190240;23;20238;-78
2020/12/02 13:07:17;;;;;;;31.40;15.02;;;3.70;71.90;;;;;;6189569;23;20641;-77
2020/12/02 13:10:12;;;;;;;26.33;14.55;;;3.60;71.90;;;;;;6191118;23;20204;-78
2020/12/02 13:12:50;;;;;;;30.33;14.82;;;3.50;71.70;;;;;;6189187;23;20200;-79
2020/12/02 13:15:25;;;;;;;29.58;15.07;;;3.40;71.80;;;;;;6192050;23;20167;-78
2020/12/02 13:18:00;;;;;;;25.27;14.02;;;3.40;72.80;;;;;;6188829;23;20183;-77
2020/12/02 13:20:32;;;;;;;27.48;13.80;;;3.40;71.60;;;;;;6190825;23;20199;-78
2020/12/02 13:23:06;;;;;;;26.60;15.73;;;3.30;72.40;;;;;;6189418;23;20167;-77
2020/12/02 13:25:36;;;;;;;25.20;13.98;;;3.20;71.50;;;;;;6188385;23;20212;-77
2020/12/02 13:28:14;;;;;;;29.20;15.02;;;3.20;73.80;;;;;;6186734;23;20686;-77
2020/12/02 13:30:52;;;;;;;32.10;15.23;;;3.30;73.20;;;;;;6188094;23;20203;-77
2020/12/02 13:33:24;;;;;;;29.10;14.63;;;3.40;71.60;;;;;;6188227;23;20248;-77
2020/12/02 13:35:51;;;;;;;23.42;13.75;;;3.30;71.60;;;;;;6187612;23;20167;-78
2020/12/02 13:38:18;;;;;;;31.90;15.02;;;3.30;71.60;;;;;;6188038;23;20180;-77
2020/12/02 13:40:48;;;;;;;30.20;14.95;;;3.20;72.60;;;;;;6187900;23;20677;-77
2020/12/02 13:43:23;;;;;;;26.45;15.20;;;3.20;73.10;;;;;;6190036;23;20190;-78
2020/12/02 13:45:50;;;;;;;30.25;15.68;;;3.30;74.40;;;;;;6190862;23;20195;-77
2020/12/02 13:48:17;;;;;;;26.80;14.70;;;3.30;74.50;;;;;;6188232;23;20215;-77
2020/12/02 13:50:46;;;;;;;29.50;14.57;;;3.30;74.20;;;;;;6188398;23;20627;-77